Time;durP1;ratioP1;P1;durP2;ratioP2;P2;SDS_P1;SDS_P2;PMS_P1;PMS_P2;Temp;Humidity;BMP_temperature;BMP_pressure;BME280_temperature;BME280_humidity;BME280_pressure;Samples;Min_cycle;Max_cycle;Signal;HPM_P1;HPM_P2
2022/03/11 00:00:27;;;;;;;14.50;7.82;;;;;;;4.25;100.00;100712.97;5070025;28;20032;-68
2022/03/11 00:02:52;;;;;;;13.52;7.15;;;;;;;4.23;100.00;100704.31;5072341;28;20038;-68
2022/03/11 00:05:18;;;;;;;10.65;7.18;;;;;;;4.20;100.00;100706.97;5071787;28;20039;-67
2022/03/11 00:07:43;;;;;;;11.77;6.75;;;;;;;4.13;100.00;100703.63;5067795;28;20094;-67
2022/03/11 00:10:09;;;;;;;9.13;6.85;;;;;;;4.11;100.00;100705.44;5071536;28;20032;-68
2022/03/11 00:12:36;;;;;;;12.23;7.22;;;;;;;4.10;100.00;100707.16;5071808;28;20024;-68
2022/03/11 00:15:02;;;;;;;8.95;6.93;;;;;;;4.06;100.00;100710.69;5069278;28;20021;-68
2022/03/11 00:17:28;;;;;;;9.98;7.13;;;;;;;4.04;100.00;100707.28;5059605;28;20028;-68
2022/03/11 00:19:53;;;;;;;10.95;7.07;;;;;;;3.99;100.00;100709.09;5071529;28;20024;-68
2022/03/11 00:22:18;;;;;;;12.38;7.43;;;;;;;3.96;100.00;100698.75;5071267;28;20028;-68
2022/03/11 00:24:44;;;;;;;12.57;7.30;;;;;;;3.94;100.00;100705.75;5071138;28;20475;-68
2022/03/11 00:27:09;;;;;;;10.45;7.35;;;;;;;3.92;100.00;100702.28;5071273;28;20047;-68
2022/03/11 00:29:34;;;;;;;12.00;7.22;;;;;;;3.95;100.00;100702.25;5071694;28;20020;-68
2022/03/11 00:32:00;;;;;;;10.90;6.60;;;;;;;3.94;100.00;100695.34;5070785;28;20801;-67
2022/03/11 00:34:26;;;;;;;10.27;6.88;;;;;;;3.76;100.00;100663.63;5071920;28;20546;-67
2022/03/11 00:36:51;;;;;;;8.63;6.40;;;;;;;3.89;100.00;100688.50;5071919;28;20036;-67
2022/03/11 00:39:16;;;;;;;8.98;6.50;;;;;;;3.87;100.00;100685.94;5072557;28;20032;-67
2022/03/11 00:41:42;;;;;;;12.32;7.15;;;;;;;3.91;100.00;100691.94;5072648;28;20112;-68
2022/03/11 00:44:07;;;;;;;13.50;7.55;;;;;;;3.89;100.00;100691.09;5072168;28;20020;-68
2022/03/11 00:46:32;;;;;;;10.18;7.25;;;;;;;3.83;100.00;100676.47;5072827;28;20024;-68
2022/03/11 00:48:58;;;;;;;12.48;7.75;;;;;;;3.81;100.00;100686.06;5072393;28;20039;-69
2022/03/11 00:51:24;;;;;;;13.45;7.00;;;;;;;3.79;100.00;100685.22;5072253;28;20035;-68
2022/03/11 00:53:49;;;;;;;11.73;8.10;;;;;;;3.74;100.00;100687.06;5070176;28;20039;-69
2022/03/11 00:56:14;;;;;;;15.00;7.85;;;;;;;3.67;100.00;100681.97;5070460;28;20028;-68
2022/03/11 00:58:40;;;;;;;14.52;8.45;;;;;;;3.57;100.00;100674.34;5072699;28;20098;-68
2022/03/11 01:01:05;;;;;;;12.52;8.50;;;;;;;3.60;100.00;100673.44;5072114;28;20471;-69
2022/03/11 01:03:30;;;;;;;10.15;6.88;;;;;;;3.55;100.00;100675.25;5072775;28;20032;-69
2022/03/11 01:05:56;;;;;;;9.93;7.72;;;;;;;3.52;100.00;100670.09;5071852;28;20028;-68
2022/03/11 01:08:21;;;;;;;14.38;8.50;;;;;;;3.51;100.00;100668.41;5071784;28;20063;-68
2022/03/11 01:10:46;;;;;;;10.32;7.13;;;;;;;3.44;100.00;100661.59;5070953;28;20166;-68
2022/03/11 01:13:12;;;;;;;13.27;8.45;;;;;;;3.39;100.00;100658.22;5071196;28;20024;-68
2022/03/11 01:15:37;;;;;;;11.30;7.63;;;;;;;3.20;100.00;100633.44;5070295;28;20020;-68
2022/03/11 01:18:03;;;;;;;13.98;8.50;;;;;;;3.30;100.00;100654.03;5056525;28;20065;-68
2022/03/11 01:20:28;;;;;;;17.20;8.13;;;;;;;3.30;100.00;100655.78;5070017;28;20040;-68
2022/03/11 01:22:53;;;;;;;23.55;9.00;;;;;;;3.21;100.00;100648.97;5069837;28;20028;-68
2022/03/11 01:25:19;;;;;;;14.57;8.82;;;;;;;3.18;100.00;100648.22;5070154;28;20605;-69
2022/03/11 01:27:44;;;;;;;14.38;8.40;;;;;;;3.18;100.00;100648.22;5065976;28;20021;-68
2022/03/11 01:30:13;;;;;;;11.00;8.30;;;;;;;3.17;100.00;100646.47;5070776;28;20032;-68
2022/03/11 01:32:39;;;;;;;13.13;8.40;;;;;;;3.16;100.00;100636.97;5071996;28;20033;-68
2022/03/11 01:35:05;;;;;;;12.63;8.40;;;;;;;3.12;100.00;100649.13;5071570;28;20031;-68
2022/03/11 01:37:30;;;;;;;14.45;8.25;;;;;;;3.11;100.00;100636.22;5070617;28;20029;-68
2022/03/11 01:39:55;;;;;;;12.35;9.20;;;;;;;3.08;100.00;100637.94;5071350;28;20022;-68
2022/03/11 01:42:21;;;;;;;14.90;8.95;;;;;;;3.06;100.00;100634.53;5070828;28;20039;-68
2022/03/11 01:44:46;;;;;;;14.98;8.77;;;;;;;2.99;100.00;100627.72;5071738;28;20445;-68
2022/03/11 01:47:11;;;;;;;12.43;7.93;;;;;;;2.98;100.00;100618.22;5071272;28;20490;-68
2022/03/11 01:49:37;;;;;;;11.95;7.43;;;;;;;2.99;100.00;100622.53;5072438;28;20032;-68
2022/03/11 01:52:03;;;;;;;11.75;7.10;;;;;;;3.02;100.00;100612.09;5068873;28;20032;-68
2022/03/11 01:54:28;;;;;;;12.52;7.32;;;;;;;3.05;100.00;100612.03;5087016;28;20024;-68
2022/03/11 01:56:53;;;;;;;11.25;7.45;;;;;;;3.03;100.00;100608.63;5071146;28;20107;-69
2022/03/11 01:59:20;;;;;;;9.15;6.93;;;;;;;2.98;100.00;100589.66;5072047;28;20040;-68
2022/03/11 02:01:45;;;;;;;13.30;8.02;;;;;;;3.06;100.00;100600.78;5071934;28;20028;-68
2022/03/11 02:04:10;;;;;;;15.57;7.90;;;;;;;3.06;100.00;100592.13;5070872;28;20083;-68
2022/03/11 02:06:36;;;;;;;11.18;7.28;;;;;;;3.06;100.00;100603.38;5071993;28;20383;-68
2022/03/11 02:09:03;;;;;;;12.52;7.53;;;;;;;3.04;100.00;100588.72;5071420;28;20028;-68
2022/03/11 02:11:28;;;;;;;10.50;7.55;;;;;;;2.99;100.00;100590.53;5070818;28;20033;-69
2022/03/11 02:13:56;;;;;;;11.80;7.63;;;;;;;2.95;100.00;100583.66;5071209;28;20039;-68
2022/03/11 02:16:32;;;;;;;12.68;8.10;;;;;;;2.91;100.00;100582.84;5070887;28;20477;-68
2022/03/11 02:18:59;;;;;;;12.07;7.18;;;;;;;2.88;100.00;100587.25;5071378;28;20486;-68
2022/03/11 02:21:28;;;;;;;11.63;7.50;;;;;;;2.84;100.00;100583.84;5071734;28;20467;-68
2022/03/11 02:23:56;;;;;;;17.63;8.70;;;;;;;2.83;100.00;100574.34;5075649;28;20154;-68
2022/03/11 02:26:23;;;;;;;11.18;7.05;;;;;;;2.86;100.00;100579.50;5075949;28;20067;-69
2022/03/11 02:28:50;;;;;;;12.25;8.20;;;;;;;2.85;100.00;100577.78;5075490;28;20039;-69
2022/03/11 02:31:15;;;;;;;11.13;7.90;;;;;;;2.82;100.00;100572.63;5075752;28;20039;-69
2022/03/11 02:33:40;;;;;;;11.52;6.95;;;;;;;2.76;100.00;100571.88;5091168;28;20016;-69
2022/03/11 02:36:06;;;;;;;13.45;7.82;;;;;;;2.69;100.00;100565.94;5074120;28;20013;-68
2022/03/11 02:38:32;;;;;;;9.82;6.90;;;;;;;2.63;100.00;100563.44;5072430;28;20496;-69
2022/03/11 02:40:58;;;;;;;15.02;8.95;;;;;;;2.56;100.00;100565.28;5074142;28;20020;-68
2022/03/11 02:43:24;;;;;;;12.77;9.00;;;;;;;2.51;100.00;100568.78;5072535;28;20474;-68
2022/03/11 02:45:50;;;;;;;11.07;8.20;;;;;;;2.42;100.00;100567.19;5075308;28;20055;-68
2022/03/11 02:48:15;;;;;;;10.98;7.90;;;;;;;2.34;100.00;100573.34;5074524;28;20090;-68
2022/03/11 02:50:41;;;;;;;11.88;7.88;;;;;;;2.20;100.00;100558.00;5074489;28;20021;-68
2022/03/11 02:53:06;;;;;;;10.85;7.75;;;;;;;2.19;100.00;100566.66;5070357;28;20039;-68
2022/03/11 02:55:31;;;;;;;14.63;8.80;;;;;;;2.14;100.00;100567.59;5074600;28;20030;-68
2022/03/11 02:57:57;;;;;;;14.07;8.80;;;;;;;2.08;100.00;100554.72;5074931;28;20024;-68
2022/03/11 03:00:23;;;;;;;12.32;8.38;;;;;;;2.02;100.00;100553.94;5056721;28;20445;-68
2022/03/11 03:02:48;;;;;;;13.32;8.52;;;;;;;1.99;100.00;100561.72;5074687;28;20024;-68
2022/03/11 03:05:13;;;;;;;12.45;8.68;;;;;;;1.95;100.00;100547.13;5074373;28;20017;-67
2022/03/11 03:07:40;;;;;;;15.98;9.50;;;;;;;1.99;100.00;100559.13;5074996;28;20025;-67
2022/03/11 03:10:06;;;;;;;12.93;7.90;;;;;;;2.05;100.00;100561.66;5074935;28;20035;-67
2022/03/11 03:12:32;;;;;;;12.43;7.97;;;;;;;2.09;100.00;100567.66;5074952;28;20132;-67
2022/03/11 03:14:57;;;;;;;13.13;7.95;;;;;;;2.10;100.00;100559.00;5056682;28;20024;-68
2022/03/11 03:17:22;;;;;;;12.15;7.90;;;;;;;2.10;100.00;100558.13;5090348;28;20052;-67
2022/03/11 03:19:48;;;;;;;15.60;8.98;;;;;;;2.06;100.00;100555.59;5074408;28;20074;-67
2022/03/11 03:22:14;;;;;;;14.80;7.38;;;;;;;1.94;100.00;100529.84;5073958;28;20181;-68
2022/03/11 03:24:39;;;;;;;11.60;7.78;;;;;;;2.05;100.00;100553.03;5070320;28;20047;-68
2022/03/11 03:27:04;;;;;;;13.25;8.50;;;;;;;2.03;100.00;100541.81;5089336;28;20028;-68
2022/03/11 03:29:30;;;;;;;17.08;8.85;;;;;;;2.08;100.00;100559.91;5055550;28;20115;-68
2022/03/11 03:31:58;;;;;;;15.32;8.45;;;;;;;1.84;100.00;100515.31;5074081;28;20031;-68
2022/03/11 03:34:32;;;;;;;14.27;9.50;;;;;;;2.04;100.00;100547.00;5055732;28;20025;-68
2022/03/11 03:36:59;;;;;;;14.77;9.07;;;;;;;1.97;100.00;100539.31;5073357;28;20041;-68
2022/03/11 03:39:25;;;;;;;12.90;8.40;;;;;;;1.98;100.00;100538.44;5056146;28;20823;-68
2022/03/11 03:41:50;;;;;;;12.38;8.85;;;;;;;1.97;100.00;100536.72;5073671;28;20073;-68
2022/03/11 03:44:16;;;;;;;15.55;8.10;;;;;;;2.02;100.00;100545.31;5074264;28;20032;-68
2022/03/11 03:46:42;;;;;;;11.38;7.78;;;;;;;1.92;100.00;100523.84;5073643;28;20029;-68
2022/03/11 03:49:07;;;;;;;15.38;7.57;;;;;;;2.09;100.00;100533.13;5073326;28;20081;-68
2022/03/11 03:51:33;;;;;;;10.55;6.95;;;;;;;2.15;100.00;100540.81;5070326;28;20040;-68
2022/03/11 03:53:58;;;;;;;10.52;6.45;;;;;;;2.09;100.00;100518.44;5072633;28;20475;-68
2022/03/11 03:56:24;;;;;;;17.13;7.32;;;;;;;2.25;100.00;100534.63;5072579;28;20025;-68
2022/03/11 03:58:49;;;;;;;11.20;6.90;;;;;;;2.28;100.00;100527.66;5073738;28;20556;-68
2022/03/11 04:01:14;;;;;;;12.88;6.57;;;;;;;2.41;100.00;100542.16;5073468;28;20076;-68
2022/03/11 04:03:40;;;;;;;10.30;7.07;;;;;;;2.45;100.00;100542.97;5072228;28;20083;-68
2022/03/11 04:06:06;;;;;;;11.10;6.93;;;;;;;2.43;100.00;100532.59;5072674;28;20029;-68
2022/03/11 04:08:31;;;;;;;11.40;6.15;;;;;;;2.44;100.00;100536.91;5072257;28;20028;-68
2022/03/11 04:10:56;;;;;;;10.60;6.70;;;;;;;2.43;100.00;100532.59;5050936;28;20391;-68
2022/03/11 04:13:22;;;;;;;13.27;6.50;;;;;;;2.40;100.00;100526.63;5072967;28;20028;-68
2022/03/11 04:15:47;;;;;;;8.23;5.93;;;;;;;2.34;100.00;100521.50;5073095;28;20029;-68
2022/03/11 04:18:12;;;;;;;10.32;6.30;;;;;;;2.35;100.00;100523.22;5073216;28;20029;-68
2022/03/11 04:20:38;;;;;;;10.40;6.50;;;;;;;2.32;100.00;100518.09;5072898;28;20040;-68
2022/03/11 04:23:04;;;;;;;13.80;7.18;;;;;;;1.93;100.00;100460.78;5072887;28;20037;-68
2022/03/11 04:25:29;;;;;;;13.07;6.60;;;;;;;2.29;100.00;100512.97;5072728;28;20040;-68
2022/03/11 04:27:55;;;;;;;9.13;6.80;;;;;;;2.28;100.00;100511.25;5088593;28;20025;-68
2022/03/11 04:30:20;;;;;;;11.00;6.35;;;;;;;2.34;100.00;100524.09;5072659;28;20028;-68
2022/03/11 04:32:45;;;;;;;10.15;6.55;;;;;;;2.34;100.00;100511.13;5071775;28;20035;-68
2022/03/11 04:35:11;;;;;;;8.13;5.47;;;;;;;2.39;100.00;100520.59;5072681;28;20028;-69
2022/03/11 04:37:36;;;;;;;8.57;6.30;;;;;;;2.39;100.00;100504.16;5071269;28;20434;-68
2022/03/11 04:40:02;;;;;;;9.90;6.10;;;;;;;2.40;100.00;100511.06;5072099;28;20048;-68
2022/03/11 04:42:27;;;;;;;11.70;7.20;;;;;;;2.35;100.00;100507.69;5071629;28;20027;-68
2022/03/11 04:44:53;;;;;;;10.35;6.93;;;;;;;2.48;100.00;100514.38;5086046;28;20071;-68
2022/03/11 04:47:18;;;;;;;12.98;7.40;;;;;;;2.49;100.00;100501.41;5071361;28;20528;-68
2022/03/11 04:49:43;;;;;;;11.57;7.38;;;;;;;2.50;100.00;100491.91;5070921;28;20033;-68
2022/03/11 04:52:09;;;;;;;10.63;7.70;;;;;;;2.61;100.00;100500.34;5071515;28;20799;-68
2022/03/11 04:54:34;;;;;;;10.07;7.13;;;;;;;2.66;100.00;100508.91;5071570;28;20033;-68
2022/03/11 04:57:00;;;;;;;11.75;7.25;;;;;;;2.65;100.00;100514.13;5072016;28;20077;-68
2022/03/11 04:59:26;;;;;;;12.98;7.47;;;;;;;2.65;100.00;100509.78;5070971;28;20399;-68
2022/03/11 05:01:51;;;;;;;14.60;7.75;;;;;;;2.67;100.00;100520.97;5072387;28;20387;-68
2022/03/11 05:04:16;;;;;;;12.65;7.43;;;;;;;2.62;100.00;100503.78;5071921;28;20103;-68
2022/03/11 05:06:42;;;;;;;14.75;7.07;;;;;;;2.63;100.00;100508.09;5071538;28;20025;-68
2022/03/11 05:09:07;;;;;;;9.68;6.68;;;;;;;2.32;100.00;100466.25;5071998;28;20029;-68
2022/03/11 05:11:33;;;;;;;14.85;7.72;;;;;;;2.54;100.00;100504.78;5068665;28;20032;-68
2022/03/11 05:13:58;;;;;;;12.52;6.65;;;;;;;2.53;100.00;100495.28;5053264;28;20519;-68
2022/03/11 05:16:24;;;;;;;12.43;6.65;;;;;;;2.30;100.00;100471.44;5062039;28;20025;-68
2022/03/11 05:18:53;;;;;;;9.48;6.57;;;;;;;2.47;100.00;100500.56;5071547;28;20032;-68
2022/03/11 05:21:18;;;;;;;10.48;6.97;;;;;;;2.45;100.00;100494.56;5069356;28;20115;-68
2022/03/11 05:23:44;;;;;;;9.45;6.72;;;;;;;2.47;100.00;100491.91;5068326;28;20438;-68
2022/03/11 05:26:24;;;;;;;12.73;7.32;;;;;;;2.43;100.00;100492.88;5071892;28;20040;-68
2022/03/11 05:28:51;;;;;;;10.52;6.63;;;;;;;2.42;100.00;100504.13;5072515;28;20059;-69
2022/03/11 05:31:16;;;;;;;10.45;7.10;;;;;;;2.37;100.00;100496.41;5070706;28;20078;-68
2022/03/11 05:33:41;;;;;;;11.25;6.85;;;;;;;2.25;100.00;100485.38;5072284;28;20530;-68
2022/03/11 05:36:08;;;;;;;14.55;6.95;;;;;;;2.14;100.00;100480.34;5071233;28;20075;-68
2022/03/11 05:38:33;;;;;;;12.80;7.25;;;;;;;2.19;100.00;100498.41;5070954;28;20021;-68
2022/03/11 05:40:58;;;;;;;10.65;6.97;;;;;;;2.13;100.00;100503.69;5072056;28;20032;-68
2022/03/11 05:43:24;;;;;;;11.15;7.65;;;;;;;2.11;100.00;100505.44;5088159;28;20532;-68
2022/03/11 05:45:49;;;;;;;11.27;7.22;;;;;;;2.06;100.00;100496.00;5072269;28;20060;-68
2022/03/11 05:48:14;;;;;;;10.38;6.93;;;;;;;2.02;100.00;100498.66;5071973;28;20471;-68
2022/03/11 05:50:40;;;;;;;10.02;6.25;;;;;;;2.00;100.00;100503.84;5071887;28;20107;-68
2022/03/11 05:53:05;;;;;;;18.27;7.20;;;;;;;1.99;100.00;100509.06;5071907;28;20025;-68
2022/03/11 05:55:30;;;;;;;11.10;7.38;;;;;;;1.95;100.00;100512.56;5071194;28;20107;-69
2022/03/11 05:57:56;;;;;;;10.02;6.53;;;;;;;1.93;100.00;100510.00;5069993;28;20375;-68
2022/03/11 06:00:22;;;;;;;12.75;7.07;;;;;;;1.90;100.00;100511.78;5070503;28;20024;-67
2022/03/11 06:02:47;;;;;;;13.50;7.25;;;;;;;1.95;100.00;100513.44;5071303;28;20471;-67
2022/03/11 06:05:13;;;;;;;12.15;7.65;;;;;;;1.92;100.00;100508.31;5069075;28;20033;-67
2022/03/11 06:07:39;;;;;;;13.75;7.28;;;;;;;1.84;100.00;100486.81;5067965;28;20356;-67
2022/03/11 06:10:05;;;;;;;11.70;7.32;;;;;;;1.91;100.00;100491.03;5071324;28;20029;-67
2022/03/11 06:12:30;;;;;;;12.82;7.03;;;;;;;1.87;100.00;100494.53;5071090;28;20039;-67
2022/03/11 06:14:57;;;;;;;10.25;7.00;;;;;;;1.83;100.00;100487.69;5071189;28;20021;-67
2022/03/11 06:17:22;;;;;;;11.05;6.90;;;;;;;1.73;100.00;100483.50;5071593;28;20028;-68
2022/03/11 06:19:48;;;;;;;11.93;7.70;;;;;;;1.73;100.00;100488.69;5071956;28;20037;-68
2022/03/11 06:22:13;;;;;;;10.43;6.80;;;;;;;1.80;100.00;100497.22;5069399;28;20033;-67
2022/03/11 06:24:38;;;;;;;23.52;8.40;;;;;;;1.75;100.00;100486.94;5081625;28;20032;-68
2022/03/11 06:27:04;;;;;;;12.98;7.75;;;;;;;1.82;100.00;100477.34;5085881;28;20467;-68
2022/03/11 06:29:29;;;;;;;13.48;8.32;;;;;;;1.87;100.00;100485.91;5087146;28;20035;-68
2022/03/11 06:31:54;;;;;;;16.83;8.50;;;;;;;1.88;100.00;100485.03;5071862;28;20025;-68
2022/03/11 06:34:20;;;;;;;12.45;7.13;;;;;;;1.91;100.00;100485.00;5069921;28;20032;-67
2022/03/11 06:36:45;;;;;;;12.30;7.53;;;;;;;1.77;100.00;100456.69;5069894;28;20103;-67
2022/03/11 06:39:13;;;;;;;11.60;7.30;;;;;;;1.97;100.00;100493.53;5071547;28;20035;-67
2022/03/11 06:41:39;;;;;;;14.07;7.10;;;;;;;2.06;100.00;100506.34;5071106;28;20090;-68
2022/03/11 06:44:04;;;;;;;11.32;7.10;;;;;;;2.10;100.00;100502.00;5087351;28;20025;-67
2022/03/11 06:46:30;;;;;;;14.73;8.20;;;;;;;2.20;100.00;100502.75;5071976;28;20032;-67
2022/03/11 06:48:55;;;;;;;10.55;7.72;;;;;;;2.23;100.00;100505.28;5070929;28;20033;-68
2022/03/11 06:51:20;;;;;;;13.52;7.15;;;;;;;2.32;100.00;100505.13;5071895;28;20052;-68
2022/03/11 06:53:46;;;;;;;17.13;7.63;;;;;;;2.28;100.00;100495.69;5052939;28;20139;-68
2022/03/11 06:56:11;;;;;;;12.75;7.13;;;;;;;2.42;100.00;100504.97;5070668;28;20083;-67
2022/03/11 06:58:37;;;;;;;10.98;7.10;;;;;;;2.53;100.00;100507.41;5085030;28;20116;-68
2022/03/11 07:01:03;;;;;;;13.90;7.80;;;;;;;2.62;100.00;100496.88;5070037;28;20048;-68
2022/03/11 07:03:29;;;;;;;10.43;7.03;;;;;;;2.67;100.00;100489.84;5070010;28;20024;-68
2022/03/11 07:05:54;;;;;;;12.48;6.88;;;;;;;2.76;100.00;100494.91;5069751;28;20083;-67
2022/03/11 07:08:20;;;;;;;12.95;7.32;;;;;;;2.85;100.00;100494.75;5071727;28;20028;-68
2022/03/11 07:10:45;;;;;;;10.32;6.95;;;;;;;2.92;100.00;100490.31;5071881;28;20028;-68
2022/03/11 07:13:10;;;;;;;11.00;7.07;;;;;;;2.97;100.00;100488.50;5064979;28;20036;-68
2022/03/11 07:15:36;;;;;;;15.35;7.43;;;;;;;3.00;100.00;100478.91;5075475;28;20016;-68
2022/03/11 07:18:02;;;;;;;9.80;7.55;;;;;;;2.94;100.00;100454.81;5075249;28;20071;-68
2022/03/11 07:20:27;;;;;;;15.98;7.43;;;;;;;3.17;100.00;100480.34;5075596;28;20071;-68
2022/03/11 07:22:52;;;;;;;16.25;7.85;;;;;;;3.28;100.00;100478.41;5075688;28;20031;-68
2022/03/11 07:25:18;;;;;;;11.18;7.30;;;;;;;3.31;100.00;100473.16;5074713;28;20479;-68
2022/03/11 07:27:45;;;;;;;11.20;6.85;;;;;;;3.38;100.00;100472.97;5075106;28;20036;-68
2022/03/11 07:30:11;;;;;;;13.68;8.70;;;;;;;3.51;100.00;100486.59;5075163;28;20031;-68
2022/03/11 07:32:40;;;;;;;12.23;6.90;;;;;;;3.57;100.00;100470.88;5074509;28;20024;-68
2022/03/11 07:35:08;;;;;;;11.40;7.28;;;;;;;3.64;100.00;100469.88;5054743;28;20048;-67
2022/03/11 07:37:35;;;;;;;10.93;7.15;;;;;;;3.73;100.00;100481.78;5070074;28;20437;-68
2022/03/11 07:40:00;;;;;;;24.10;8.18;;;;;;;3.79;100.00;100477.31;5069943;28;20613;-68
2022/03/11 07:42:25;;;;;;;12.95;7.40;;;;;;;3.89;100.00;100478.84;5072577;28;20028;-68
2022/03/11 07:44:51;;;;;;;12.13;7.63;;;;;;;3.95;100.00;100481.31;5074251;28;20480;-68
2022/03/11 07:47:16;;;;;;;10.80;7.03;;;;;;;4.04;100.00;100481.13;5074443;28;20024;-68
2022/03/11 07:49:42;;;;;;;14.50;8.30;;;;;;;4.12;100.00;100468.78;5073396;28;20078;-68
2022/03/11 07:52:14;;;;;;;12.73;7.10;;;;;;;4.18;100.00;100466.94;5074147;28;20463;-67
2022/03/11 07:54:40;;;;;;;12.07;7.20;;;;;;;4.18;100.00;100459.13;5073522;28;20046;-67
2022/03/11 07:57:05;;;;;;;12.27;7.75;;;;;;;4.27;100.00;100459.78;5074360;28;20111;-67
2022/03/11 07:59:33;;;;;;;14.02;8.05;;;;;;;4.40;100.00;100463.78;5074360;28;20033;-67
2022/03/11 08:01:59;;;;;;;15.13;6.82;;;;;;;4.51;100.00;100464.41;5074049;28;20475;-68
2022/03/11 08:04:25;;;;;;;9.65;7.05;;;;;;;4.62;100.00;100451.97;5086911;28;20493;-68
2022/03/11 08:06:51;;;;;;;18.92;7.85;;;;;;;4.66;100.00;100439.75;5073980;28;20028;-68
2022/03/11 08:09:16;;;;;;;18.05;8.75;;;;;;;4.87;100.00;100460.00;5073822;28;20031;-68
2022/03/11 08:11:42;;;;;;;15.45;8.10;;;;;;;4.92;100.00;100449.47;5074069;28;20025;-68
2022/03/11 08:14:07;;;;;;;14.55;7.78;;;;;;;5.09;100.00;100460.31;5073206;28;20024;-68
2022/03/11 08:16:32;;;;;;;14.30;8.52;;;;;;;5.19;100.00;100455.69;5072989;28;20077;-68
2022/03/11 08:18:58;;;;;;;10.68;7.25;;;;;;;5.29;100.00;100460.63;5073034;28;20078;-68
2022/03/11 08:21:24;;;;;;;13.00;7.63;;;;;;;5.43;100.00;100460.22;5073172;28;20021;-68
2022/03/11 08:23:49;;;;;;;13.02;7.50;;;;;;;5.56;100.00;100448.56;5088417;28;20043;-68
2022/03/11 08:26:15;;;;;;;13.05;8.32;;;;;;;5.65;100.00;100456.09;5073087;28;20047;-68
2022/03/11 08:28:41;;;;;;;11.80;7.28;;;;;;;5.77;100.00;100447.94;5072954;28;20024;-67
2022/03/11 08:31:07;;;;;;;12.63;8.25;;;;;;;5.88;100.00;100447.66;5071775;28;20414;-67
2022/03/11 08:33:35;;;;;;;12.60;8.13;;;;;;;6.01;100.00;100454.19;5088856;28;20043;-67
2022/03/11 08:36:01;;;;;;;12.82;7.80;;;;;;;6.06;100.00;100440.09;5073085;28;20016;-67
2022/03/11 08:38:26;;;;;;;12.63;7.13;;;;;;;6.20;99.48;100446.63;5086880;28;20062;-68
2022/03/11 08:40:52;;;;;;;14.70;8.43;;;;;;;6.34;99.02;100447.06;5040597;28;20028;-68
2022/03/11 08:43:18;;;;;;;14.95;8.30;;;;;;;6.38;98.62;100436.47;5041010;28;20135;-67
2022/03/11 08:45:43;;;;;;;14.52;7.75;;;;;;;6.52;97.80;100438.63;5042928;28;20032;-67
2022/03/11 08:48:08;;;;;;;16.88;7.82;;;;;;;6.67;96.15;100444.19;5045832;28;20067;-67
2022/03/11 08:50:34;;;;;;;15.77;7.60;;;;;;;6.84;96.14;100442.75;5043767;28;20433;-67
2022/03/11 08:53:00;;;;;;;10.23;6.97;;;;;;;6.97;95.27;100444.91;5030632;28;20032;-68
2022/03/11 08:55:25;;;;;;;13.52;8.68;;;;;;;6.94;92.58;100416.28;5062129;28;20016;-67
2022/03/11 08:57:51;;;;;;;10.75;8.07;;;;;;;7.19;92.91;100434.56;5045554;28;20033;-67
2022/03/11 09:00:21;;;;;;;14.52;8.00;;;;;;;7.24;91.60;100418.69;5048258;28;20135;-68
2022/03/11 09:02:47;;;;;;;12.85;8.70;;;;;;;7.49;92.42;100440.44;5046148;28;20957;-67
2022/03/11 09:05:15;;;;;;;12.88;8.07;;;;;;;7.60;91.84;100433.03;5044279;28;20032;-67
2022/03/11 09:07:40;;;;;;;11.18;7.75;;;;;;;7.64;89.75;100432.84;5017946;28;20024;-67
2022/03/11 09:10:11;;;;;;;15.35;8.30;;;;;;;7.68;89.12;100430.97;5030702;28;20029;-67
2022/03/11 09:12:37;;;;;;;13.57;7.93;;;;;;;7.79;88.98;100428.81;5016750;28;20047;-68
2022/03/11 09:15:04;;;;;;;16.73;7.82;;;;;;;7.86;88.39;100422.44;5034949;28;20020;-68
2022/03/11 09:17:30;;;;;;;13.82;8.55;;;;;;;8.00;88.30;100427.13;5036584;28;20032;-68
2022/03/11 09:19:56;;;;;;;13.23;8.05;;;;;;;8.06;88.65;100425.13;5052173;28;20043;-68
2022/03/11 09:22:22;;;;;;;12.55;8.80;;;;;;;8.15;88.98;100422.13;5033923;28;20131;-68
2022/03/11 09:24:47;;;;;;;9.90;8.30;;;;;;;8.29;89.34;100412.91;5048558;28;20036;-68
2022/03/11 09:27:13;;;;;;;13.30;8.10;;;;;;;8.39;89.33;100419.47;5032141;28;20031;-68
2022/03/11 09:29:39;;;;;;;16.75;8.23;;;;;;;8.58;86.79;100420.44;5060882;28;20035;-68
2022/03/11 09:32:05;;;;;;;12.60;8.27;;;;;;;8.70;87.80;100409.44;5049190;28;20039;-68
2022/03/11 09:34:32;;;;;;;12.38;8.40;;;;;;;8.84;87.91;100414.94;5050702;28;20134;-68
2022/03/11 09:36:57;;;;;;;13.25;8.00;;;;;;;9.02;85.63;100415.94;5048677;28;20017;-68
2022/03/11 09:39:23;;;;;;;11.07;7.40;;;;;;;9.20;85.22;100415.97;5060457;28;20035;-68
2022/03/11 09:41:50;;;;;;;15.15;7.88;;;;;;;9.39;87.18;100408.13;5060478;28;20037;-68
2022/03/11 09:44:17;;;;;;;10.40;7.78;;;;;;;9.58;84.86;100405.50;5062429;28;20075;-68
2022/03/11 09:46:43;;;;;;;10.88;7.70;;;;;;;9.63;86.73;100398.31;5056104;28;20050;-68
2022/03/11 09:49:11;;;;;;;11.75;7.68;;;;;;;9.78;84.03;100410.69;5059897;28;20112;-68
2022/03/11 09:51:37;;;;;;;11.23;8.15;;;;;;;9.87;83.96;100396.31;5058935;28;20035;-68
2022/03/11 09:54:03;;;;;;;10.85;6.40;;;;;;;9.99;85.70;100400.97;5042815;28;20032;-69
2022/03/11 09:56:29;;;;;;;15.60;7.03;;;;;;;10.13;85.74;100388.03;5042309;28;20040;-68
2022/03/11 09:58:55;;;;;;;9.20;7.25;;;;;;;10.37;84.43;100383.38;5062609;28;20036;-68
2022/03/11 10:01:20;;;;;;;11.60;6.95;;;;;;;10.69;84.14;100370.31;5060440;28;20030;-68
2022/03/11 10:03:46;;;;;;;14.93;7.47;;;;;;;10.86;83.39;100369.44;5063722;28;20036;-68
2022/03/11 10:06:11;;;;;;;8.43;6.82;;;;;;;11.02;82.01;100366.88;5073729;28;20729;-68
2022/03/11 10:08:39;;;;;;;10.48;6.13;;;;;;;11.17;81.93;100372.19;5055480;28;20032;-68
2022/03/11 10:11:25;;;;;;;12.50;6.28;;;;;;;11.56;80.67;100366.53;5043989;28;20526;-68
2022/03/11 10:13:54;;;;;;;6.85;5.28;;;;;;;11.92;79.48;100347.91;5061757;28;20466;-68
2022/03/11 10:16:25;;;;;;;10.88;5.80;;;;;;;12.19;81.70;100348.97;5044547;28;20056;-68
2022/03/11 10:18:59;;;;;;;6.32;5.07;;;;;;;12.36;79.17;100349.78;5060766;28;20032;-68
2022/03/11 10:21:45;;;;;;;7.82;5.70;;;;;;;12.57;75.83;100340.63;5033050;28;20025;-68
2022/03/11 10:24:13;;;;;;;10.95;6.55;;;;;;;12.74;74.81;100348.38;5053457;28;20082;-68
2022/03/11 10:27:07;;;;;;;11.63;5.85;;;;;;;12.87;73.85;100349.31;5059915;28;20111;-68
2022/03/11 10:29:34;;;;;;;7.05;5.75;;;;;;;12.80;75.28;100322.47;5052942;28;20850;-68
2022/03/11 10:32:01;;;;;;;11.10;5.90;;;;;;;13.06;73.30;100344.63;5054360;28;20616;-68
2022/03/11 10:34:34;;;;;;;12.40;4.88;;;;;;;13.10;73.43;100345.31;5056481;28;20032;-68
2022/03/11 10:37:02;;;;;;;8.10;5.17;;;;;;;13.14;72.96;100342.41;5054265;28;20477;-68
2022/03/11 10:39:31;;;;;;;8.45;5.93;;;;;;;13.21;71.95;100330.50;5045039;28;20055;-68
2022/03/11 10:41:59;;;;;;;7.40;5.72;;;;;;;13.19;69.52;100313.94;5054901;28;20094;-68
2022/03/11 10:44:28;;;;;;;9.70;5.68;;;;;;;13.34;72.58;100316.56;5047235;28;20135;-68
2022/03/11 10:46:55;;;;;;;16.58;6.45;;;;;;;13.38;70.90;100302.22;5046307;28;20024;-68
2022/03/11 10:49:37;;;;;;;9.07;6.13;;;;;;;13.63;69.95;100319.03;5041516;28;20055;-68
2022/03/11 10:52:03;;;;;;;6.50;5.15;;;;;;;13.72;70.57;100320.25;5061998;28;20163;-68
2022/03/11 10:54:29;;;;;;;7.72;6.28;;;;;;;13.76;70.15;100314.66;5062682;28;20037;-68
2022/03/11 10:56:55;;;;;;;12.57;7.28;;;;;;;13.84;69.13;100311.53;5061854;28;20071;-69
2022/03/11 10:59:20;;;;;;;9.70;5.53;;;;;;;13.92;70.13;100303.97;5061838;28;20059;-68
2022/03/11 11:01:46;;;;;;;16.35;6.35;;;;;;;14.00;68.83;100293.72;5052270;28;20029;-68
2022/03/11 11:04:14;;;;;;;6.68;5.20;;;;;;;13.94;69.21;100286.22;5061073;28;20028;-68
2022/03/11 11:06:40;;;;;;;7.40;4.60;;;;;;;14.20;69.48;100295.91;5043516;28;20021;-68
2022/03/11 11:09:08;;;;;;;8.57;5.97;;;;;;;14.25;68.83;100293.81;5058579;28;20055;-68
2022/03/11 11:11:34;;;;;;;8.05;5.15;;;;;;;14.33;67.54;100283.56;5043448;28;20024;-68
2022/03/11 11:14:04;;;;;;;11.98;5.30;;;;;;;14.43;68.44;100283.81;5058994;28;20067;-68